Time;durP1;ratioP1;P1;durP2;ratioP2;P2;SDS_P1;SDS_P2;PMS_P1;PMS_P2;Temp;Humidity;BMP_temperature;BMP_pressure;BME280_temperature;BME280_humidity;BME280_pressure;Samples;Min_cycle;Max_cycle;Signal;HPM_P1;HPM_P2
2021/01/26 00:01:22;;;;;;;5.30;4.47;;;;;;;-0.56;94.82;98374.59;1815659;78;21158;-81
2021/01/26 00:03:49;;;;;;;8.10;5.47;;;;;;;-0.56;94.72;98379.72;1818687;78;21210;-84
2021/01/26 00:06:17;;;;;;;8.18;6.40;;;;;;;-0.57;94.75;98376.77;1792010;80;21184;-83
2021/01/26 00:08:45;;;;;;;7.25;5.70;;;;;;;-0.55;94.77;98381.42;1794839;78;21722;-80
2021/01/26 00:11:12;;;;;;;6.50;5.42;;;;;;;-0.52;94.82;98378.78;1813178;78;21107;-83
2021/01/26 00:13:39;;;;;;;7.15;5.47;;;;;;;-0.51;94.75;98383.02;1824098;78;21212;-80
2021/01/26 00:16:06;;;;;;;6.30;5.03;;;;;;;-0.51;94.72;98384.30;1819014;78;21195;-83
2021/01/26 00:18:34;;;;;;;6.17;5.00;;;;;;;-0.51;94.72;98383.02;1803365;78;21241;-83
2021/01/26 00:21:01;;;;;;;6.83;5.33;;;;;;;-0.52;94.66;98386.03;1827062;78;27203;-83
2021/01/26 00:23:28;;;;;;;6.90;5.75;;;;;;;-0.52;94.69;98386.48;1796671;78;21145;-85
2021/01/26 00:25:55;;;;;;;7.60;5.62;;;;;;;-0.52;94.70;98389.04;1802757;78;21176;-84
2021/01/26 00:28:22;;;;;;;;;;;;;;;-0.53;94.66;98384.80;1813633;78;22122;-84
2021/01/26 00:30:49;;;;;;;6.28;5.35;;;;;;;-0.54;94.69;98379.25;1810472;78;20219;-84
2021/01/26 00:33:21;;;;;;;6.65;5.90;;;;;;;-0.57;94.55;98385.73;1821050;78;21199;-84
2021/01/26 00:35:49;;;;;;;11.68;6.58;;;;;;;-0.60;94.65;98385.81;1813527;78;21122;-84
2021/01/26 00:38:17;;;;;;;8.13;6.35;;;;;;;-0.62;94.74;98385.00;1808885;78;21158;-81
2021/01/26 00:40:44;;;;;;;8.63;7.33;;;;;;;-0.59;94.80;98384.92;1806129;78;23559;-82
2021/01/26 00:43:13;;;;;;;7.70;6.53;;;;;;;-0.58;94.79;98396.88;1806613;78;21607;-84
2021/01/26 00:45:41;;;;;;;8.03;6.70;;;;;;;-0.56;94.80;98395.10;1814856;78;21601;-84
2021/01/26 00:48:08;;;;;;;9.35;6.90;;;;;;;-0.55;94.77;98396.80;1793490;78;21213;-79
2021/01/26 00:50:35;;;;;;;7.87;6.67;;;;;;;-0.53;94.81;98387.37;1797390;78;21148;-81
2021/01/26 00:53:03;;;;;;;10.03;6.00;;;;;;;-0.51;94.83;98385.59;1791987;80;21241;-83
2021/01/26 00:55:30;;;;;;;10.65;7.22;;;;;;;-0.50;94.82;98388.58;1794830;78;21608;-78
2021/01/26 00:57:57;;;;;;;7.08;5.78;;;;;;;-0.50;94.77;98387.29;1813683;78;21199;-86
2021/01/26 01:00:32;;;;;;;7.75;6.00;;;;;;;-0.48;94.80;98387.66;1800000;78;21164;-84
2021/01/26 01:02:59;;;;;;;7.97;5.60;;;;;;;-0.48;94.73;98393.20;1805557;78;21613;-79
2021/01/26 01:05:26;;;;;;;6.67;5.65;;;;;;;-0.50;94.73;98391.97;1798079;78;22189;-84
2021/01/26 01:07:54;;;;;;;;;;;;;;;-0.49;94.79;98396.66;1797189;79;21167;-80
2021/01/26 01:10:28;;;;;;;7.85;6.50;;;;;;;-0.47;94.79;98397.47;1816509;78;20231;-83
2021/01/26 01:12:56;;;;;;;9.48;6.92;;;;;;;-0.49;94.77;98396.66;1791371;80;21201;-83
2021/01/26 01:15:24;;;;;;;9.50;6.62;;;;;;;-0.46;94.84;98397.86;1796495;78;21209;-84
2021/01/26 01:17:51;;;;;;;8.43;5.95;;;;;;;-0.46;94.84;98394.02;1806309;78;22178;-81
2021/01/26 01:20:23;;;;;;;7.70;6.22;;;;;;;-0.44;94.80;98393.99;1816851;78;21625;-84
2021/01/26 01:22:50;;;;;;;5.53;4.90;;;;;;;-0.45;94.79;98398.25;1791415;80;20988;-84
2021/01/26 01:25:17;;;;;;;7.40;5.78;;;;;;;-0.43;94.81;98388.81;1821989;78;21146;-84
2021/01/26 01:27:44;;;;;;;;;;;;;;;-0.45;94.74;98386.72;1826249;78;21162;-83
2021/01/26 01:30:17;;;;;;;6.83;5.80;;;;;;;-0.47;94.71;98388.50;1823571;78;21253;-80
2021/01/26 01:32:44;;;;;;;6.30;5.15;;;;;;;-0.48;94.78;98393.20;1804741;78;21200;-82
2021/01/26 01:35:13;;;;;;;9.75;6.50;;;;;;;-0.49;94.79;98379.98;1800619;78;21769;-83
2021/01/26 01:37:40;;;;;;;7.40;5.87;;;;;;;-0.48;94.84;98381.66;1816510;78;21147;-85
2021/01/26 01:40:12;;;;;;;8.55;5.62;;;;;;;-0.47;94.86;98384.65;1793920;78;21199;-82
2021/01/26 01:42:39;;;;;;;7.97;5.37;;;;;;;-0.48;94.79;98378.69;1811967;78;21221;-85
2021/01/26 01:45:08;;;;;;;5.17;4.67;;;;;;;-0.48;94.80;98380.38;1791848;78;21620;-85
2021/01/26 01:47:49;;;;;;;5.60;4.72;;;;;;;-0.46;94.82;98378.63;1791224;80;21220;-79
2021/01/26 01:50:54;;;;;;;5.78;4.85;;;;;;;-0.42;94.85;98371.28;1864205;76;22263;-85
2021/01/26 01:53:36;;;;;;;5.42;4.92;;;;;;;-0.49;94.77;98376.14;1795445;79;21127;-85
2021/01/26 01:56:34;;;;;;;5.05;4.15;;;;;;;-0.48;94.87;98372.69;1815447;77;21131;-80
2021/01/26 01:59:09;;;;;;;5.70;4.50;;;;;;;-0.47;94.85;98364.13;1849125;77;21165;-80
2021/01/26 02:01:36;;;;;;;6.58;4.17;;;;;;;-0.47;94.87;98364.13;1731932;82;21184;-85
2021/01/26 02:04:08;;;;;;;4.85;4.33;;;;;;;-0.47;94.90;98363.69;1771781;80;21167;-85
2021/01/26 02:06:38;;;;;;;5.08;3.90;;;;;;;-0.45;94.87;98359.79;1722591;81;21717;-79
2021/01/26 02:09:16;;;;;;;5.53;3.72;;;;;;;-0.48;94.79;98370.99;1773342;80;21248;-80
2021/01/26 02:11:46;;;;;;;4.80;3.60;;;;;;;-0.48;94.84;98367.56;1747729;80;21231;-84
2021/01/26 02:14:13;;;;;;;4.95;3.22;;;;;;;-0.48;94.89;98373.97;1731137;81;21183;-84
2021/01/26 02:17:10;;;;;;;4.40;3.37;;;;;;;-0.47;94.91;98374.39;1755191;80;21214;-83
2021/01/26 02:20:00;;;;;;;4.50;3.55;;;;;;;-0.48;94.90;98376.53;1747819;81;21603;-83
2021/01/26 02:23:01;;;;;;;4.37;3.50;;;;;;;-0.47;94.91;98377.80;1731472;81;21388;-84
2021/01/26 02:26:20;;;;;;;4.20;3.75;;;;;;;-0.50;94.84;98379.59;1731029;81;21147;-84
2021/01/26 02:28:58;;;;;;;4.08;3.37;;;;;;;-0.51;94.91;98386.87;1754515;80;21199;-82
2021/01/26 02:31:48;;;;;;;5.67;3.77;;;;;;;-0.48;94.96;98386.79;1733569;81;21120;-78
2021/01/26 02:34:40;;;;;;;5.42;3.75;;;;;;;-0.49;94.94;98381.27;1734142;81;21120;-87
2021/01/26 02:37:47;;;;;;;3.85;3.00;;;;;;;-0.47;94.96;98390.61;1731069;81;21257;-81
2021/01/26 02:40:52;;;;;;;5.20;4.35;;;;;;;-0.47;94.85;98393.63;1730973;81;27370;-87
2021/01/26 02:43:27;;;;;;;4.85;4.15;;;;;;;-0.49;94.90;98396.66;1731701;81;21225;-85
2021/01/26 02:46:21;;;;;;;5.35;4.60;;;;;;;-0.53;94.82;98400.19;1723620;81;21177;-85
2021/01/26 02:49:02;;;;;;;5.05;4.55;;;;;;;-0.55;94.88;98397.64;1732634;81;21128;-80
2021/01/26 02:51:49;;;;;;;7.20;5.58;;;;;;;-0.53;94.98;98394.61;1744941;80;21309;-86
2021/01/26 02:54:30;;;;;;;7.92;7.17;;;;;;;-0.53;94.93;98402.75;1733417;81;21144;-83
2021/01/26 02:57:17;;;;;;;6.58;5.37;;;;;;;-0.51;95.03;98392.00;1716493;83;21214;-82
2021/01/26 02:59:57;;;;;;;8.53;4.65;;;;;;;-0.48;95.05;98397.91;1684908;83;21183;-85
2021/01/26 03:02:44;;;;;;;5.65;4.53;;;;;;;-0.47;94.98;98393.63;1693222;83;21145;-79
2021/01/26 03:05:24;;;;;;;5.22;4.45;;;;;;;-0.46;94.98;98394.02;1693972;83;21214;-83
2021/01/26 03:08:14;;;;;;;5.20;4.10;;;;;;;-0.45;94.97;98382.87;1698979;83;21150;-85
2021/01/26 03:10:58;;;;;;;5.28;4.30;;;;;;;-0.42;94.92;98393.08;1819377;78;22716;-83
2021/01/26 03:13:28;;;;;;;4.58;4.12;;;;;;;-0.49;94.82;98399.22;1788661;79;21139;-84
2021/01/26 03:16:05;;;;;;;5.35;3.80;;;;;;;-0.50;94.88;98393.70;1762190;79;21185;-79
2021/01/26 03:18:43;;;;;;;4.37;3.85;;;;;;;-0.50;94.91;98384.73;1767103;79;21592;-85
2021/01/26 03:21:13;;;;;;;4.70;3.80;;;;;;;-0.50;94.95;98380.88;1764758;79;21132;-79
2021/01/26 03:24:00;;;;;;;3.30;3.00;;;;;;;-0.50;94.87;98397.55;1769814;80;21695;-83
2021/01/26 03:26:27;;;;;;;4.30;3.50;;;;;;;-0.54;94.80;98385.66;1792323;79;21212;-83
2021/01/26 03:28:59;;;;;;;4.25;3.75;;;;;;;-0.57;94.80;98392.14;1765220;80;21140;-80
2021/01/26 03:31:32;;;;;;;5.22;3.45;;;;;;;-0.58;94.83;98393.03;1760905;80;21152;-82
2021/01/26 03:33:59;;;;;;;5.72;3.90;;;;;;;-0.61;94.80;98391.38;1790095;79;21176;-83
2021/01/26 03:36:26;;;;;;;4.30;3.30;;;;;;;-0.60;94.93;98386.65;1761654;81;21709;-84
2021/01/26 03:38:54;;;;;;;5.30;4.22;;;;;;;-0.59;94.91;98392.61;1780240;79;21119;-82
2021/01/26 03:41:21;;;;;;;5.12;3.47;;;;;;;-0.60;94.86;98398.19;1775517;79;21212;-81
2021/01/26 03:43:50;;;;;;;4.00;3.60;;;;;;;-0.59;94.94;98400.30;1762231;80;21153;-84
2021/01/26 03:46:42;;;;;;;5.40;4.15;;;;;;;-0.60;94.85;98398.63;1780171;80;21155;-82
2021/01/26 03:49:44;;;;;;;4.28;3.40;;;;;;;-0.60;94.87;98398.63;1775214;80;21131;-79
2021/01/26 03:52:46;;;;;;;5.05;3.92;;;;;;;-0.60;94.86;98406.32;1773690;79;21222;-79
2021/01/26 03:55:48;;;;;;;6.15;4.37;;;;;;;-0.63;94.80;98402.55;1759773;80;21264;-86
2021/01/26 03:59:02;;;;;;;6.35;4.50;;;;;;;-0.66;94.87;98403.91;1774623;79;21594;-84
2021/01/26 04:01:55;;;;;;;6.70;5.10;;;;;;;-0.66;94.93;98406.47;1769156;79;21586;-83
2021/01/26 04:04:33;;;;;;;5.75;4.45;;;;;;;-0.68;94.88;98407.77;1762967;80;21195;-82
2021/01/26 04:07:06;;;;;;;4.53;3.65;;;;;;;-0.70;94.90;98407.83;1788472;80;21115;-85
2021/01/26 04:09:38;;;;;;;4.62;4.08;;;;;;;-0.72;94.89;98403.61;1766196;80;21288;-85
2021/01/26 04:12:18;;;;;;;4.17;3.62;;;;;;;-0.74;94.93;98404.91;1742164;81;21587;-83
2021/01/26 04:15:14;;;;;;;4.65;4.15;;;;;;;-0.74;95.00;98399.78;1760472;81;21163;-80
2021/01/26 04:17:46;;;;;;;4.62;4.05;;;;;;;-0.75;94.94;98406.24;1756362;81;21119;-82
2021/01/26 04:20:27;;;;;;;3.45;3.15;;;;;;;-0.75;95.02;98404.52;1741765;81;21159;-81
2021/01/26 04:22:58;;;;;;;4.22;3.72;;;;;;;-0.74;94.98;98402.34;1749686;81;21201;-80
2021/01/26 04:25:38;;;;;;;4.22;3.35;;;;;;;-0.76;95.00;98401.53;1772678;80;21171;-79
2021/01/26 04:28:13;;;;;;;5.00;3.47;;;;;;;-0.76;94.91;98410.50;1758750;81;21223;-84
2021/01/26 04:30:41;;;;;;;5.40;4.40;;;;;;;-0.80;94.92;98411.46;1768311;80;21194;-79
2021/01/26 04:33:15;;;;;;;7.33;4.75;;;;;;;-0.79;95.03;98413.58;1767758;80;21182;-88
2021/01/26 04:35:43;;;;;;;6.53;4.08;;;;;;;-0.77;95.00;98411.84;1763780;81;21207;-85
2021/01/26 04:38:10;;;;;;;;;;;;;;;-0.76;95.00;98408.37;1752131;81;21175;-86
2021/01/26 04:40:38;;;;;;;5.12;4.12;;;;;;;-0.74;95.08;98401.52;1738002;81;20281;-80
2021/01/26 04:43:30;;;;;;;4.00;3.60;;;;;;;-0.72;95.06;98405.73;1761768;81;21195;-86
2021/01/26 04:46:08;;;;;;;5.80;4.00;;;;;;;-0.69;95.09;98413.34;1699846;83;21233;-85
2021/01/26 04:49:06;;;;;;;5.95;4.33;;;;;;;-0.66;95.07;98398.78;1681887;83;22663;-85
2021/01/26 04:52:15;;;;;;;5.80;4.60;;;;;;;-0.60;95.04;98392.22;1847180;77;23467;-85
2021/01/26 04:54:56;;;;;;;4.85;4.12;;;;;;;-0.65;94.98;98394.05;1815708;78;21201;-83
2021/01/26 04:57:40;;;;;;;5.47;4.60;;;;;;;-0.66;95.01;98392.37;1777795;79;22200;-80
2021/01/26 05:00:24;;;;;;;6.58;5.08;;;;;;;-0.69;94.88;98402.25;1780059;80;21155;-83
2021/01/26 05:03:31;;;;;;;5.62;5.08;;;;;;;-0.75;94.82;98409.64;1760724;80;21202;-84
2021/01/26 05:06:03;;;;;;;6.40;4.90;;;;;;;-0.79;94.88;98404.16;1770419;80;21282;-81
2021/01/26 05:08:40;;;;;;;6.30;5.12;;;;;;;-0.85;94.92;98412.00;1781852;79;21267;-82
2021/01/26 05:11:14;;;;;;;5.37;4.58;;;;;;;-0.86;94.98;98410.33;1781075;79;22163;-85
2021/01/26 05:14:04;;;;;;;5.05;4.55;;;;;;;-0.81;95.16;98408.50;1780710;80;21134;-79
2021/01/26 05:16:59;;;;;;;4.70;4.17;;;;;;;-0.75;95.12;98399.84;1810587;78;22343;-82
2021/01/26 05:19:40;;;;;;;5.17;4.30;;;;;;;-0.78;95.12;98405.88;1772013;80;21235;-85
2021/01/26 05:22:28;;;;;;;5.28;4.17;;;;;;;-0.75;95.12;98405.80;1770975;80;21404;-83
2021/01/26 05:25:04;;;;;;;;;;;;;;;-0.74;95.09;98404.91;1762947;80;21250;-78
2021/01/26 05:27:31;;;;;;;5.62;4.92;;;;;;;-0.72;95.17;98410.85;1786853;79;20295;-83
2021/01/26 05:29:59;;;;;;;;;;;;;;;-0.69;95.24;98405.66;1763209;81;21686;-78
2021/01/26 05:32:28;;;;;;;5.30;4.80;;;;;;;-0.66;95.19;98411.59;1769139;80;20256;-81
2021/01/26 05:34:56;;;;;;;6.37;4.97;;;;;;;-0.65;95.23;98414.55;1783550;79;21469;-79
2021/01/26 05:37:24;;;;;;;7.40;5.45;;;;;;;-0.62;95.26;98418.33;1772968;79;21221;-80
2021/01/26 05:40:11;;;;;;;6.92;5.22;;;;;;;-0.61;95.16;98410.61;1795134;79;21552;-87
2021/01/26 05:42:40;;;;;;;5.97;5.30;;;;;;;-0.59;95.22;98413.13;1786419;80;22737;-83
2021/01/26 05:45:21;;;;;;;9.10;6.28;;;;;;;-0.58;95.22;98412.27;1792260;79;22389;-87
2021/01/26 05:48:06;;;;;;;8.65;6.22;;;;;;;-0.55;95.25;98416.03;1782250;79;21202;-77
2021/01/26 05:50:37;;;;;;;9.98;6.15;;;;;;;-0.53;95.12;98410.44;1778547;80;21198;-79
2021/01/26 05:53:24;;;;;;;13.00;5.67;;;;;;;-0.59;94.94;98411.39;1761809;81;21171;-81
2021/01/26 05:56:08;;;;;;;6.25;4.28;;;;;;;-0.61;94.96;98413.63;1758309;81;21155;-82
2021/01/26 05:58:29;;;;;;;6.10;3.80;;;;;;;-0.63;94.94;98421.78;1768928;79;21135;-81
2021/01/26 06:00:59;;;;;;;6.08;3.40;;;;;;;-0.67;95.02;98418.45;1795841;79;21218;-81
2021/01/26 06:03:29;;;;;;;4.87;3.98;;;;;;;-0.69;95.02;98428.72;1762656;79;21147;-82
2021/01/26 06:06:16;;;;;;;5.92;3.75;;;;;;;-0.73;94.87;98428.81;1775998;79;21652;-81
2021/01/26 06:08:55;;;;;;;8.03;4.72;;;;;;;-0.79;94.89;98429.80;1773290;80;21151;-78
2021/01/26 06:11:31;;;;;;;11.05;4.97;;;;;;;-0.81;94.91;98434.13;1788958;79;21152;-82
2021/01/26 06:14:13;;;;;;;8.25;4.50;;;;;;;-0.82;95.07;98441.40;1760982;81;21196;-83
2021/01/26 06:16:41;;;;;;;8.53;5.20;;;;;;;-0.81;95.07;98441.83;1763289;80;21175;-83
2021/01/26 06:19:12;;;;;;;10.53;6.15;;;;;;;-0.81;95.14;98446.95;1762703;81;21139;-84
2021/01/26 06:21:52;;;;;;;8.20;5.10;;;;;;;-0.78;95.23;98441.75;1766984;80;21131;-83
2021/01/26 06:24:26;;;;;;;5.33;4.20;;;;;;;-0.74;95.23;98440.80;1765691;80;21156;-82
2021/01/26 06:27:30;;;;;;;6.28;4.72;;;;;;;-0.71;95.23;98445.85;1762769;81;21564;-82
2021/01/26 06:30:11;;;;;;;8.33;5.45;;;;;;;-0.68;95.25;98445.78;1767996;80;21794;-78
2021/01/26 06:33:04;;;;;;;7.75;5.35;;;;;;;-0.64;95.21;98447.86;1781972;80;21134;-80
2021/01/26 06:35:39;;;;;;;7.28;4.60;;;;;;;-0.66;95.09;98450.05;1764979;80;21119;-80
2021/01/26 06:38:30;;;;;;;7.22;3.98;;;;;;;-0.72;95.00;98462.12;1776471;80;21551;-82
2021/01/26 06:41:08;;;;;;;5.95;4.62;;;;;;;-0.73;95.07;98459.16;1791313;79;21199;-81
2021/01/26 06:43:59;;;;;;;4.50;4.05;;;;;;;-0.73;95.06;98459.16;1761810;81;21172;-82
2021/01/26 06:46:31;;;;;;;6.33;4.60;;;;;;;-0.75;95.07;98460.91;1761975;80;21250;-78
2021/01/26 06:49:24;;;;;;;5.87;4.87;;;;;;;-0.77;95.06;98465.22;1772803;79;21234;-78
2021/01/26 06:52:33;;;;;;;6.40;5.70;;;;;;;-0.74;95.13;98468.15;1784575;79;21653;-77
2021/01/26 06:55:30;;;;;;;5.80;5.20;;;;;;;-0.71;95.19;98465.52;1762333;79;21575;-80
2021/01/26 06:58:22;;;;;;;7.33;5.90;;;;;;;-0.65;95.19;98470.95;1775073;80;21573;-79
2021/01/26 07:01:19;;;;;;;6.05;5.08;;;;;;;-0.59;95.26;98464.39;1764488;80;21151;-79
2021/01/26 07:04:23;;;;;;;7.80;6.28;;;;;;;-0.53;95.32;98470.70;1783480;80;21194;-79
2021/01/26 07:07:14;;;;;;;7.75;6.67;;;;;;;-0.54;95.11;98470.27;1762357;81;21163;-79
2021/01/26 07:09:55;;;;;;;8.10;6.40;;;;;;;-0.57;95.01;98472.91;1761434;80;22331;-79
2021/01/26 07:12:46;;;;;;;6.42;5.80;;;;;;;-0.62;95.02;98473.00;1756755;81;21505;-79
2021/01/26 07:15:39;;;;;;;6.37;5.78;;;;;;;-0.63;95.03;98473.05;1761639;79;21222;-81
2021/01/26 07:18:28;;;;;;;6.72;4.90;;;;;;;-0.62;95.07;98479.84;1725170;81;21246;-80
2021/01/26 07:21:09;;;;;;;5.92;5.30;;;;;;;-0.59;95.18;98469.52;1706491;83;21288;-80
2021/01/26 07:23:47;;;;;;;7.25;5.55;;;;;;;-0.55;95.16;98473.72;1703563;81;21400;-80
2021/01/26 07:26:45;;;;;;;6.25;4.72;;;;;;;-0.52;95.18;98481.34;1710688;81;21273;-80
2021/01/26 07:29:27;;;;;;;6.22;4.65;;;;;;;-0.49;95.25;98471.02;1728852;81;21614;-81
2021/01/26 07:32:02;;;;;;;4.33;3.92;;;;;;;-0.42;95.24;98470.02;1728602;81;21254;-80
2021/01/26 07:35:01;;;;;;;6.45;4.30;;;;;;;-0.39;95.05;98463.53;1819330;78;22045;-81
2021/01/26 07:37:36;;;;;;;4.80;3.80;;;;;;;-0.42;95.06;98470.02;1759965;81;21137;-80
2021/01/26 07:40:33;;;;;;;5.87;4.70;;;;;;;-0.34;95.18;98470.65;1775181;79;21208;-81
2021/01/26 07:43:23;;;;;;;4.37;3.87;;;;;;;-0.29;95.12;98470.55;1684402;83;21722;-80
2021/01/26 07:45:58;;;;;;;4.78;4.03;;;;;;;-0.18;95.27;98476.72;1702054;83;21241;-81
2021/01/26 07:48:46;;;;;;;5.08;3.15;;;;;;;-0.12;95.16;98477.84;1694342;84;21263;-81
2021/01/26 07:51:16;;;;;;;;;;;;;;;-0.15;94.89;98488.19;1642200;87;21207;-81
2021/01/26 07:54:06;;;;;;;3.10;2.80;;;;;;;-0.25;94.65;98473.02;1665985;85;21227;-80
2021/01/26 07:56:40;;;;;;;3.60;2.67;;;;;;;-0.34;94.62;98478.34;1622959;87;21192;-81
2021/01/26 07:59:14;;;;;;;5.35;3.47;;;;;;;-0.38;94.91;98471.61;1688292;84;21259;-81
2021/01/26 08:01:46;;;;;;;3.12;2.77;;;;;;;-0.34;95.06;98477.06;1653699;85;22353;-80
2021/01/26 08:04:28;;;;;;;4.28;3.00;;;;;;;-0.26;95.10;98473.88;1839533;77;22368;-80
2021/01/26 08:07:02;;;;;;;4.78;3.70;;;;;;;-0.26;95.02;98484.14;1796449;78;21152;-81
2021/01/26 08:09:43;;;;;;;3.58;2.90;;;;;;;-0.23;94.89;98478.94;1792171;80;21202;-80
2021/01/26 08:12:33;;;;;;;3.72;3.15;;;;;;;-0.17;94.83;98487.38;1805928;78;21146;-80
2021/01/26 08:15:14;;;;;;;5.22;3.12;;;;;;;-0.18;94.70;98485.70;1749170;80;21179;-80
2021/01/26 08:17:42;;;;;;;4.60;2.45;;;;;;;-0.27;94.35;98484.20;1697798;83;21689;-84
2021/01/26 08:20:15;;;;;;;3.37;3.08;;;;;;;-0.30;94.53;98485.11;1697696;83;21232;-81
2021/01/26 08:22:56;;;;;;;2.87;2.60;;;;;;;-0.28;94.58;98491.05;1677711;84;21262;-81
2021/01/26 08:25:38;;;;;;;4.62;3.58;;;;;;;-0.10;94.85;98478.66;1797892;79;22876;-81
2021/01/26 08:28:13;;;;;;;5.83;4.00;;;;;;;0.04;94.97;98484.30;1770867;80;21155;-81
2021/01/26 08:30:56;;;;;;;6.67;4.15;;;;;;;0.24;94.73;98482.96;1789047;78;27902;-82
2021/01/26 08:33:28;;;;;;;4.40;3.60;;;;;;;0.35;94.57;98486.09;1764421;79;21130;-81
2021/01/26 08:36:11;;;;;;;5.35;3.87;;;;;;;0.51;94.51;98499.39;1781761;79;21537;-81
2021/01/26 08:38:58;;;;;;;5.33;4.00;;;;;;;0.57;93.97;98497.50;1758306;80;21203;-81
2021/01/26 08:41:40;;;;;;;4.75;4.10;;;;;;;0.47;93.74;98500.34;1787310;79;25525;-83
2021/01/26 08:44:22;;;;;;;6.22;4.17;;;;;;;0.33;93.74;98501.53;1790703;79;21147;-82
2021/01/26 08:46:52;;;;;;;4.60;3.80;;;;;;;0.28;93.76;98494.83;1754945;81;21644;-82
2021/01/26 08:49:33;;;;;;;5.58;4.22;;;;;;;0.34;94.22;98500.67;1763419;79;21261;-83
2021/01/26 08:52:23;;;;;;;6.28;4.20;;;;;;;0.37;94.01;98499.75;1797154;79;21233;-82
2021/01/26 08:54:53;;;;;;;5.22;3.75;;;;;;;0.38;94.12;98509.13;1677783;83;21191;-81
2021/01/26 08:57:31;;;;;;;5.65;4.30;;;;;;;0.31;93.88;98507.58;1703191;83;21177;-81
2021/01/26 09:00:18;;;;;;;6.92;4.78;;;;;;;0.21;93.91;98514.23;1692884;84;21678;-81
2021/01/26 09:02:51;;;;;;;5.10;3.92;;;;;;;0.21;94.24;98509.11;1628816;86;21196;-81
2021/01/26 09:05:47;;;;;;;5.25;4.28;;;;;;;0.19;94.22;98503.16;1682379;84;21247;-82
2021/01/26 09:08:36;;;;;;;5.85;4.17;;;;;;;0.19;94.11;98503.60;1635229;86;21208;-80
2021/01/26 09:11:06;;;;;;;6.15;4.55;;;;;;;0.17;94.08;98502.38;1633928;86;21573;-81
2021/01/26 09:13:35;;;;;;;6.45;4.90;;;;;;;0.28;94.39;98505.09;1631353;87;21234;-80
2021/01/26 09:16:27;;;;;;;5.50;4.22;;;;;;;0.32;94.17;98506.72;1644953;86;21321;-78
2021/01/26 09:19:08;;;;;;;6.90;4.60;;;;;;;0.44;94.51;98507.23;1645425;86;21282;-80
2021/01/26 09:21:35;;;;;;;7.37;5.17;;;;;;;0.57;94.24;98506.48;1635840;86;21730;-83
2021/01/26 09:24:03;;;;;;;5.28;4.20;;;;;;;0.60;93.90;98515.39;1634261;86;21257;-85
2021/01/26 09:26:31;;;;;;;5.05;4.00;;;;;;;0.60;93.93;98510.25;1650282;86;21840;-83
2021/01/26 09:28:58;;;;;;;5.92;4.97;;;;;;;0.68;93.95;98516.93;1678244;82;21295;-85
2021/01/26 09:31:29;;;;;;;7.08;4.40;;;;;;;0.73;93.66;98518.91;1706321;82;21234;-83
2021/01/26 09:34:06;;;;;;;5.37;4.72;;;;;;;0.87;94.00;98515.11;1727151;81;21221;-85
2021/01/26 09:36:34;;;;;;;6.03;4.83;;;;;;;0.97;93.70;98516.97;1720578;82;21138;-84
2021/01/26 09:39:06;;;;;;;5.65;4.28;;;;;;;0.91;93.38;98515.86;1743268;81;21176;-85
2021/01/26 09:41:35;;;;;;;5.33;4.67;;;;;;;0.84;93.02;98527.17;1733670;81;21210;-82
2021/01/26 09:44:10;;;;;;;7.78;4.33;;;;;;;0.79;93.15;98526.48;1734179;81;21220;-84
2021/01/26 09:46:46;;;;;;;6.58;4.85;;;;;;;0.62;92.65;98526.48;1707687;83;21189;-84
2021/01/26 09:49:24;;;;;;;7.03;4.58;;;;;;;0.53;93.12;98526.70;1726855;82;21205;-83
2021/01/26 09:52:08;;;;;;;7.15;4.58;;;;;;;0.47;93.30;98522.17;1711157;82;21136;-84
2021/01/26 09:54:40;;;;;;;8.38;5.50;;;;;;;0.54;93.81;98527.12;1728385;82;21437;-85
2021/01/26 09:57:12;;;;;;;8.00;5.35;;;;;;;0.52;93.48;98529.32;1727954;82;21627;-86
2021/01/26 09:59:39;;;;;;;6.67;4.87;;;;;;;0.57;93.81;98536.02;1717096;82;21222;-84
2021/01/26 10:02:13;;;;;;;5.78;4.72;;;;;;;0.59;93.69;98526.56;1716269;82;21220;-85
2021/01/26 10:04:43;;;;;;;7.72;5.58;;;;;;;0.71;93.97;98529.69;1723257;82;21165;-85
2021/01/26 10:07:14;;;;;;;10.82;5.45;;;;;;;0.81;93.67;98527.26;1661121;83;21408;-84
2021/01/26 10:09:42;;;;;;;6.75;5.37;;;;;;;0.84;93.29;98528.45;1696298;83;21174;-83
2021/01/26 10:12:38;;;;;;;5.92;4.80;;;;;;;0.91;92.99;98529.98;1701757;83;21158;-84
2021/01/26 10:15:30;;;;;;;7.70;5.43;;;;;;;1.02;92.91;98530.54;1701875;83;21234;-84
2021/01/26 10:18:08;;;;;;;6.05;4.25;;;;;;;1.01;92.73;98527.58;1715743;82;21491;-86
2021/01/26 10:20:48;;;;;;;8.15;4.62;;;;;;;1.02;91.95;98519.42;1714674;82;21226;-85
2021/01/26 10:23:36;;;;;;;7.90;5.55;;;;;;;1.04;92.58;98510.78;1714692;82;21211;-86
2021/01/26 10:26:26;;;;;;;5.47;4.97;;;;;;;1.19;92.30;98516.38;1719017;82;21168;-83
2021/01/26 10:29:15;;;;;;;8.53;5.22;;;;;;;1.27;92.21;98521.69;1702268;83;21194;-83
2021/01/26 10:32:01;;;;;;;7.17;4.87;;;;;;;1.40;91.74;98521.32;1740639;82;21152;-88
2021/01/26 10:34:42;;;;;;;6.92;4.58;;;;;;;1.44;91.21;98522.48;1719857;82;21260;-86
2021/01/26 10:37:26;;;;;;;9.88;4.80;;;;;;;1.47;92.07;98526.70;1736030;82;21163;-86
2021/01/26 10:40:31;;;;;;;10.03;4.28;;;;;;;1.41;91.36;98530.30;1719975;82;21198;-89
2021/01/26 10:43:03;;;;;;;6.10;4.60;;;;;;;1.34;91.34;98535.20;1715429;82;21705;-86
2021/01/26 10:45:38;;;;;;;6.67;5.20;;;;;;;1.25;91.89;98536.77;1728049;82;21579;-87
2021/01/26 10:48:20;;;;;;;7.12;4.85;;;;;;;1.20;91.85;98538.62;1711696;82;21284;-87
2021/01/26 10:50:47;;;;;;;6.17;4.70;;;;;;;1.18;92.14;98541.70;1711261;82;21192;-87
2021/01/26 10:53:33;;;;;;;6.80;4.42;;;;;;;1.18;92.23;98540.41;1727209;82;21241;-87
2021/01/26 10:56:01;;;;;;;6.40;4.35;;;;;;;1.13;91.72;98539.69;1715538;82;21242;-86
2021/01/26 10:58:28;;;;;;;9.08;4.45;;;;;;;0.83;91.07;98539.63;1719401;82;21233;-87
2021/01/26 11:00:55;;;;;;;7.78;3.95;;;;;;;0.64;90.66;98542.70;1711195;83;22181;-87
2021/01/26 11:03:22;;;;;;;8.75;4.78;;;;;;;0.49;91.50;98541.80;1730995;82;21159;-87
2021/01/26 11:05:49;;;;;;;6.40;3.70;;;;;;;0.39;91.29;98544.18;1711144;83;21596;-86
2021/01/26 11:08:17;;;;;;;8.48;3.70;;;;;;;0.35;91.54;98537.45;1723904;82;21171;-86
2021/01/26 11:10:43;;;;;;;;;;;;;;;0.34;92.35;98544.77;1726417;82;21161;-85
2021/01/26 11:13:10;;;;;;;5.47;3.65;;;;;;;0.42;92.78;98541.53;1738182;82;21134;-86
2021/01/26 11:15:37;;;;;;;6.67;4.25;;;;;;;0.45;92.74;98541.48;1723562;82;21147;-86
2021/01/26 11:18:06;;;;;;;5.90;4.33;;;;;;;0.46;92.91;98537.19;1717903;82;21156;-87
2021/01/26 11:20:34;;;;;;;8.35;4.25;;;;;;;0.48;92.60;98545.26;1715171;82;21276;-84
2021/01/26 11:23:01;;;;;;;11.68;4.37;;;;;;;0.40;92.54;98548.02;1713008;82;21136;-86
2021/01/26 11:25:28;;;;;;;4.45;3.30;;;;;;;0.42;92.99;98544.11;1704319;83;21225;-85
2021/01/26 11:27:56;;;;;;;5.47;3.70;;;;;;;0.43;93.09;98543.24;1718197;82;21635;-84
2021/01/26 11:30:24;;;;;;;4.83;3.50;;;;;;;0.40;93.08;98548.45;1709635;82;21184;-87
2021/01/26 11:32:51;;;;;;;7.37;3.08;;;;;;;0.24;91.83;98558.70;1706954;82;21182;-87
2021/01/26 11:35:23;;;;;;;6.40;2.85;;;;;;;0.14;92.21;98554.20;1727477;82;21207;-85
2021/01/26 11:37:52;;;;;;;3.08;2.52;;;;;;;0.15;92.84;98555.47;1720425;82;21370;-85
2021/01/26 11:40:22;;;;;;;4.15;2.30;;;;;;;0.18;92.35;98557.95;1719284;82;21202;-86
2021/01/26 11:42:50;;;;;;;4.78;2.60;;;;;;;0.21;92.31;98559.16;1734913;82;21654;-84
2021/01/26 11:45:22;;;;;;;3.75;2.40;;;;;;;0.18;91.92;98555.39;1720456;82;21143;-86
2021/01/26 11:47:50;;;;;;;3.55;2.30;;;;;;;0.20;92.02;98551.52;1733529;82;21223;-86
2021/01/26 11:50:20;;;;;;;4.42;2.47;;;;;;;0.16;92.00;98555.02;1708107;84;21222;-83
2021/01/26 11:52:49;;;;;;;2.85;1.60;;;;;;;0.14;92.46;98552.51;1712990;82;21635;-85
2021/01/26 11:55:21;;;;;;;6.20;2.20;;;;;;;0.13;91.97;98552.53;1722250;82;21219;-86
2021/01/26 11:57:49;;;;;;;3.83;2.12;;;;;;;0.09;92.23;98549.65;1707936;84;21143;-91
2021/01/26 12:00:21;;;;;;;3.52;1.87;;;;;;;0.05;92.33;98552.70;1717944;82;21275;-84
2021/01/26 12:02:49;;;;;;;3.45;2.17;;;;;;;0.03;92.07;98556.18;1727842;82;21177;-87
2021/01/26 12:05:20;;;;;;;5.17;1.87;;;;;;;-0.02;92.18;98558.88;1719821;82;21632;-85
2021/01/26 12:07:47;;;;;;;3.55;1.45;;;;;;;-0.11;91.74;98556.50;1727081;82;21140;-83
2021/01/26 12:10:15;;;;;;;1.50;1.40;;;;;;;-0.13;92.15;98558.27;1726377;82;21944;-84
2021/01/26 12:12:43;;;;;;;2.50;1.37;;;;;;;-0.08;92.46;98559.02;1728711;82;21141;-93
2021/01/26 12:15:15;;;;;;;2.58;1.50;;;;;;;-0.08;92.26;98559.02;1711950;82;22089;-90
2021/01/26 12:17:42;;;;;;;2.85;1.25;;;;;;;-0.06;92.10;98550.38;1708062;84;21194;-92
2021/01/26 12:20:10;;;;;;;2.25;1.32;;;;;;;-0.01;91.92;98552.85;1746126;81;21570;-86
2021/01/26 12:22:39;;;;;;;1.40;1.30;;;;;;;0.00;92.15;98553.28;1722428;82;21194;-87
2021/01/26 12:25:08;;;;;;;3.35;1.20;;;;;;;0.06;91.19;98555.69;1709389;82;21676;-87